This is the latest recevied weather packets stored in our database for station/object K5GHS-1. If no packets are shown the sender has not sent any weather packets the latest 10 day(s).
| Time | Temp. | Humidity | Pressure | Rain* | Wind** | Luminosity | Snow |
|---|---|---|---|---|---|---|---|
| 1778021704 | 30° C | 51% | 1002.3 hPa | 0 mm | - | 68 W/m² | - |
| 1778021400 | 30.56° C | 49% | 1002.4 hPa | 0 mm | - | 71 W/m² | - |
| 1778021096 | 31.11° C | 48% | 1002.5 hPa | 0 mm | - | 77 W/m² | - |
| 1778020794 | 31.67° C | 47% | 1002.3 hPa | 0 mm | - | 98 W/m² | - |
| 1778020491 | 32.78° C | 46% | 1002.4 hPa | 0 mm | - | 111 W/m² | - |
| 1778020187 | 33.33° C | 48% | 1002 hPa | 0 mm | - | 409 W/m² | - |
| 1778019883 | 32.78° C | 52% | 1001.6 hPa | 0 mm | - | 419 W/m² | - |
| 1778019579 | 32.78° C | 51% | 1001.7 hPa | 0 mm | - | 267 W/m² | - |
| 1778019277 | 33.89° C | 50% | 1001.6 hPa | 0 mm | - | 177 W/m² | - |
| 1778018974 | 33.33° C | 53% | 1001.5 hPa | 0 mm | - | 412 W/m² | - |
| 1778018671 | 32.78° C | 53% | 1001.5 hPa | 0 mm | - | 499 W/m² | - |
| 1778018368 | 32.22° C | 55% | 1001.8 hPa | 0 mm | - | 320 W/m² | - |
| 1778018066 | 32.22° C | 54% | 1002 hPa | 0 mm | - | 82 W/m² | - |
| 1778017764 | 32.78° C | 53% | 1001.9 hPa | 0 mm | - | 140 W/m² | - |
| 1778017462 | 33.33° C | 52% | 1002 hPa | 0 mm | - | 114 W/m² | - |
| 1778017159 | 33.89° C | 51% | 1002.2 hPa | 0 mm | - | 269 W/m² | - |
| 1778016856 | 33.33° C | 53% | 1002 hPa | 0 mm | - | 473 W/m² | - |
| 1778016552 | 33.33° C | 52% | 1002 hPa | 0 mm | - | 486 W/m² | - |
| 1778016249 | 32.78° C | 52% | 1002.1 hPa | 0 mm | - | 338 W/m² | - |
| 1778015945 | 32.78° C | 53% | 1002.3 hPa | 0 mm | - | 124 W/m² | - |
| 1778015643 | 32.78° C | 54% | 1002.2 hPa | 0 mm | - | 573 W/m² | - |
| 1778015339 | 32.78° C | 54% | 1002.4 hPa | 0 mm | - | 159 W/m² | - |
| 1778015037 | 32.78° C | 56% | 1002.3 hPa | 0 mm | - | 140 W/m² | - |
| 1778014733 | 32.78° C | 55% | 1002.1 hPa | 0 mm | - | 613 W/m² | - |
| 1778014432 | 32.22° C | 58% | 1002.4 hPa | 0 mm | - | 632 W/m² | - |
* Rain latest hour (hover to see other rain measurements)
** Current wind speed in m/s (hover to see current wind gust speed)